createdAt,value
2018-07-25T00:02:14.666Z,12.13
2018-07-25T00:04:46.745Z,12.17
2018-07-25T00:07:18.798Z,10.90
2018-07-25T00:09:50.812Z,12.30
2018-07-25T00:12:22.907Z,11.20
2018-07-25T00:14:55.394Z,11.90
2018-07-25T00:17:27.457Z,12.07
2018-07-25T00:19:59.535Z,11.03
2018-07-25T00:22:31.611Z,13.53
2018-07-25T00:25:03.655Z,12.77
2018-07-25T00:27:35.720Z,13.73
2018-07-25T00:30:07.828Z,12.33
2018-07-25T00:32:39.889Z,12.77
2018-07-25T00:35:11.935Z,13.00
2018-07-25T00:37:44.057Z,13.57
2018-07-25T00:40:16.168Z,12.33
2018-07-25T00:42:48.790Z,13.43
2018-07-25T00:45:21.273Z,12.50
2018-07-25T00:47:53.567Z,12.70
2018-07-25T00:50:26.255Z,12.37
2018-07-25T00:52:58.402Z,12.70
2018-07-25T00:55:30.540Z,12.00
2018-07-25T00:58:02.610Z,11.90
2018-07-25T01:00:34.763Z,11.60
2018-07-25T01:03:06.831Z,12.20
2018-07-25T01:05:38.943Z,12.00
2018-07-25T01:08:11.042Z,11.90
2018-07-25T01:10:43.078Z,12.80
2018-07-25T01:13:15.166Z,12.10
2018-07-25T01:15:47.218Z,11.80
2018-07-25T01:18:19.299Z,13.90
2018-07-25T01:20:51.380Z,14.30
2018-07-25T01:23:23.448Z,13.93
2018-07-25T01:25:55.475Z,14.10
2018-07-25T01:28:27.535Z,13.27
2018-07-25T01:30:59.615Z,12.80
2018-07-25T01:33:31.723Z,12.37
2018-07-25T01:36:03.807Z,13.57
2018-07-25T01:38:36.053Z,12.13
2018-07-25T01:41:08.202Z,12.90
2018-07-25T01:43:40.223Z,13.17
2018-07-25T01:46:12.235Z,13.20
2018-07-25T01:48:44.299Z,14.13
2018-07-25T01:51:16.396Z,12.17
2018-07-25T01:53:48.486Z,12.90
2018-07-25T01:56:20.496Z,13.80
2018-07-25T01:58:52.560Z,14.07
2018-07-25T02:01:24.620Z,14.27
2018-07-25T02:03:56.638Z,14.17
2018-07-25T02:06:28.712Z,14.73
2018-07-25T02:09:00.779Z,14.70
2018-07-25T02:11:32.852Z,14.63
2018-07-25T02:14:04.908Z,13.10
2018-07-25T02:16:37.045Z,13.73
2018-07-25T02:19:09.081Z,13.57
2018-07-25T02:21:41.129Z,13.83
2018-07-25T02:24:13.179Z,13.07
2018-07-25T02:26:45.191Z,14.27
2018-07-25T02:29:17.220Z,14.00
2018-07-25T02:31:49.320Z,12.87
2018-07-25T02:34:22.210Z,13.30
2018-07-25T02:36:54.227Z,13.50
2018-07-25T02:39:26.297Z,12.67
2018-07-25T02:41:58.369Z,12.87
2018-07-25T02:44:30.408Z,12.33
2018-07-25T02:47:02.518Z,13.00
2018-07-25T02:49:34.642Z,13.10
2018-07-25T02:52:06.756Z,13.60
2018-07-25T02:54:38.823Z,13.27
2018-07-25T02:57:10.868Z,12.90
2018-07-25T02:59:42.935Z,12.80
2018-07-25T03:02:15.011Z,12.80
2018-07-25T03:04:47.065Z,12.03
2018-07-25T03:07:19.188Z,12.50
2018-07-25T03:09:51.230Z,12.23
2018-07-25T03:12:23.269Z,13.63
2018-07-25T03:14:55.293Z,14.10
2018-07-25T03:17:27.322Z,12.13
2018-07-25T03:19:59.362Z,13.20
2018-07-25T03:22:31.397Z,13.00
2018-07-25T03:25:03.600Z,13.40
2018-07-25T03:27:35.611Z,12.20
2018-07-25T03:30:07.668Z,13.40
2018-07-25T03:32:39.727Z,13.03
2018-07-25T03:35:11.750Z,12.83
2018-07-25T03:37:43.764Z,13.20
2018-07-25T03:40:15.831Z,14.50
2018-07-25T03:42:47.860Z,13.77
2018-07-25T03:45:19.932Z,13.23
2018-07-25T03:47:51.948Z,13.03
2018-07-25T03:50:24.041Z,14.10
2018-07-25T03:52:56.214Z,12.40
2018-07-25T03:55:28.268Z,12.57
2018-07-25T03:58:00.292Z,13.87
2018-07-25T04:00:32.385Z,14.03
2018-07-25T04:03:04.502Z,13.10
2018-07-25T04:05:36.538Z,13.87
2018-07-25T04:08:08.625Z,14.10
2018-07-25T04:10:42.768Z,12.10
2018-07-25T04:13:15.302Z,13.20
2018-07-25T04:15:47.693Z,14.57
2018-07-25T04:18:19.699Z,14.57
2018-07-25T04:20:51.769Z,13.90
2018-07-25T04:23:23.857Z,14.97
2018-07-25T04:25:55.951Z,14.50
2018-07-25T04:28:27.994Z,14.80
2018-07-25T04:31:00.060Z,15.27
2018-07-25T04:33:32.127Z,14.77
2018-07-25T04:36:04.307Z,14.80
2018-07-25T04:38:36.328Z,13.70
2018-07-25T04:41:08.385Z,13.93
2018-07-25T04:43:40.439Z,14.20
2018-07-25T04:46:12.590Z,14.30
2018-07-25T04:48:44.623Z,13.20
2018-07-25T04:51:16.716Z,12.13
2018-07-25T04:53:48.837Z,12.60
2018-07-25T04:56:20.949Z,12.10
2018-07-25T04:58:52.972Z,12.33
2018-07-25T05:01:25.039Z,12.43
2018-07-25T05:03:57.098Z,12.30
2018-07-25T05:06:29.187Z,12.30
2018-07-25T05:09:01.244Z,12.53
2018-07-25T05:11:33.356Z,12.37
2018-07-25T05:14:05.743Z,11.67
2018-07-25T05:16:37.868Z,13.13
2018-07-25T05:19:09.980Z,12.03
2018-07-25T05:21:42.044Z,12.23
2018-07-25T05:24:14.064Z,12.70
2018-07-25T05:26:46.193Z,13.00
2018-07-25T05:29:18.242Z,12.70
2018-07-25T05:31:50.442Z,12.47
2018-07-25T05:34:22.512Z,11.77
2018-07-25T05:36:54.623Z,10.53
2018-07-25T05:39:26.690Z,12.50
2018-07-25T05:41:58.823Z,12.27
2018-07-25T05:44:30.891Z,10.70
2018-07-25T05:47:03.029Z,11.20
2018-07-25T05:49:35.107Z,12.23
2018-07-25T05:52:07.265Z,10.43
2018-07-25T05:54:39.393Z,12.00
2018-07-25T05:57:11.435Z,11.00
2018-07-25T05:59:44.518Z,10.97
2018-07-25T06:02:16.623Z,11.00
2018-07-25T06:04:48.665Z,10.00
2018-07-25T06:07:20.727Z,10.40
2018-07-25T06:09:52.797Z,10.93
2018-07-25T06:12:24.930Z,10.80
2018-07-25T06:14:56.988Z,9.87
2018-07-25T06:17:29.097Z,10.20
2018-07-25T06:20:01.127Z,9.77
2018-07-25T06:22:33.159Z,10.07
2018-07-25T06:25:05.232Z,10.07
2018-07-25T06:27:37.300Z,10.77
2018-07-25T06:30:09.328Z,10.43
2018-07-25T06:32:41.647Z,10.27
2018-07-25T06:35:13.710Z,10.53
2018-07-25T06:37:45.760Z,11.00
2018-07-25T06:40:17.801Z,9.60
2018-07-25T06:42:49.815Z,10.50
2018-07-25T06:45:21.851Z,11.00
2018-07-25T06:47:53.916Z,9.93
2018-07-25T06:50:25.942Z,10.47
2018-07-25T06:52:57.986Z,11.30
2018-07-25T06:55:30.040Z,9.97
2018-07-25T06:58:02.096Z,9.40
2018-07-25T07:00:34.139Z,9.17
2018-07-25T07:03:06.206Z,11.40
2018-07-25T07:05:38.233Z,9.53
2018-07-25T07:08:10.291Z,11.07
2018-07-25T07:10:42.382Z,9.87
2018-07-25T07:13:14.534Z,10.03
2018-07-25T07:15:46.640Z,9.80
2018-07-25T07:18:18.724Z,9.80
2018-07-25T07:20:51.038Z,9.40
2018-07-25T07:23:23.142Z,10.37
2018-07-25T07:25:55.286Z,9.27
2018-07-25T07:28:27.265Z,8.83
2018-07-25T07:30:59.311Z,9.70
2018-07-25T07:33:31.934Z,9.77
2018-07-25T07:36:04.012Z,9.50
2018-07-25T07:38:36.067Z,9.50
2018-07-25T07:41:08.150Z,9.50
2018-07-25T07:43:40.220Z,9.30
2018-07-25T07:46:12.292Z,8.87
2018-07-25T07:48:44.348Z,9.20
2018-07-25T07:51:16.409Z,8.93
2018-07-25T07:53:48.458Z,8.37
2018-07-25T07:56:20.550Z,8.20
2018-07-25T07:58:52.616Z,8.33
2018-07-25T08:01:24.740Z,8.43
2018-07-25T08:03:56.815Z,8.80
2018-07-25T08:06:28.895Z,9.20
2018-07-25T08:09:00.973Z,8.53
2018-07-25T08:11:32.998Z,8.43
2018-07-25T08:14:05.093Z,9.63
2018-07-25T08:16:37.138Z,8.87
2018-07-25T08:19:09.980Z,9.80
2018-07-25T08:21:41.999Z,8.57
2018-07-25T08:24:14.091Z,8.60
2018-07-25T08:26:46.145Z,7.80
2018-07-25T08:29:18.229Z,8.27
2018-07-25T08:31:50.326Z,8.63
2018-07-25T08:34:22.475Z,8.60
2018-07-25T08:36:54.531Z,7.60
2018-07-25T08:39:26.623Z,7.00
2018-07-25T08:43:02.088Z,8.90
2018-07-25T08:45:34.192Z,8.50
2018-07-25T08:48:06.264Z,8.87
2018-07-25T08:50:38.332Z,8.20
2018-07-25T08:53:10.393Z,7.93
2018-07-25T08:55:42.429Z,7.80
2018-07-25T08:58:14.485Z,7.40
2018-07-25T09:00:46.527Z,6.43
2018-07-25T09:03:18.616Z,7.60
2018-07-25T09:05:50.710Z,7.63
2018-07-25T09:08:22.758Z,7.13
2018-07-25T09:10:54.835Z,7.13
2018-07-25T09:13:26.860Z,6.90
2018-07-25T09:15:58.881Z,7.27
2018-07-25T09:18:30.953Z,7.63
2018-07-25T09:21:03.063Z,7.47
2018-07-25T09:23:35.071Z,7.70
2018-07-25T09:26:07.088Z,6.37
2018-07-25T09:28:39.102Z,6.83
2018-07-25T09:31:11.168Z,6.67
2018-07-25T09:33:43.288Z,7.00
2018-07-25T09:36:15.541Z,6.60
2018-07-25T09:38:47.590Z,8.03
2018-07-25T09:41:19.638Z,7.67
2018-07-25T09:43:51.696Z,7.10
2018-07-25T09:46:23.784Z,7.27
2018-07-25T09:48:55.853Z,6.90
2018-07-25T09:51:27.917Z,7.03
2018-07-25T09:54:00.036Z,6.97
2018-07-25T09:56:32.148Z,6.60
2018-07-25T09:59:04.394Z,6.57
2018-07-25T10:01:36.559Z,6.40
2018-07-25T10:04:08.669Z,6.57
2018-07-25T10:06:40.708Z,7.00
2018-07-25T10:09:12.804Z,6.07
2018-07-25T10:11:44.911Z,5.43
2018-07-25T10:14:16.987Z,5.53
2018-07-25T10:16:49.052Z,5.67
2018-07-25T10:19:21.443Z,4.97
2018-07-25T10:21:53.594Z,5.70
2018-07-25T10:24:25.709Z,4.60
2018-07-25T10:26:57.775Z,3.77
2018-07-25T10:29:29.987Z,4.20
2018-07-25T10:32:02.320Z,3.80
2018-07-25T10:34:34.428Z,4.07
2018-07-25T10:37:06.550Z,5.50
2018-07-25T10:39:38.604Z,4.20
2018-07-25T10:42:10.710Z,3.93
2018-07-25T10:44:42.835Z,4.57
2018-07-25T10:47:14.915Z,4.43
2018-07-25T10:49:46.966Z,3.83
2018-07-25T10:52:19.043Z,3.47
2018-07-25T10:54:51.119Z,3.50
2018-07-25T10:57:23.179Z,3.70
2018-07-25T10:59:55.275Z,3.27
2018-07-25T11:02:27.319Z,3.30
2018-07-25T11:04:59.375Z,3.63
2018-07-25T11:07:31.483Z,3.37
2018-07-25T11:10:04.410Z,3.50
2018-07-25T11:12:36.615Z,3.50
2018-07-25T11:15:08.764Z,3.50
2018-07-25T11:17:41.014Z,3.10
2018-07-25T11:20:13.041Z,3.80
2018-07-25T11:22:45.091Z,3.20
2018-07-25T11:25:17.194Z,3.30
2018-07-25T11:27:49.279Z,3.30
2018-07-25T11:30:21.377Z,3.70
2018-07-25T11:32:53.492Z,4.00
2018-07-25T11:35:25.530Z,4.10
2018-07-25T11:37:57.567Z,3.97
2018-07-25T11:40:29.706Z,3.83
2018-07-25T11:43:02.870Z,3.70
2018-07-25T11:45:35.032Z,3.93
2018-07-25T11:48:07.080Z,3.60
2018-07-25T11:50:39.148Z,3.60
2018-07-25T11:53:11.179Z,4.23
2018-07-25T11:55:43.296Z,3.97
2018-07-25T11:58:15.379Z,3.40
2018-07-25T12:00:47.506Z,3.73
2018-07-25T12:03:19.576Z,3.60
2018-07-25T12:05:51.615Z,3.70
2018-07-25T12:08:23.651Z,3.70
2018-07-25T12:10:55.669Z,4.60
2018-07-25T12:13:27.755Z,3.80
2018-07-25T12:15:59.789Z,4.50
2018-07-25T12:18:31.881Z,4.27
2018-07-25T12:21:04.220Z,5.43
2018-07-25T12:23:36.366Z,4.90
2018-07-25T12:26:08.920Z,4.40
2018-07-25T12:28:41.051Z,5.30
2018-07-25T12:31:13.124Z,5.30
2018-07-25T12:33:45.255Z,5.07
2018-07-25T12:36:17.340Z,5.00
2018-07-25T12:38:49.515Z,4.80
2018-07-25T12:41:21.618Z,4.20
2018-07-25T12:43:53.644Z,4.37
2018-07-25T12:46:25.688Z,4.30
2018-07-25T12:48:57.723Z,4.60
2018-07-25T12:51:29.868Z,4.83
2018-07-25T12:54:01.954Z,4.10
2018-07-25T12:56:34.085Z,4.00
2018-07-25T12:59:06.196Z,2.70
2018-07-25T13:01:38.273Z,2.23
2018-07-25T13:04:10.307Z,2.80
2018-07-25T13:06:42.327Z,2.40
2018-07-25T13:09:14.399Z,3.00
2018-07-25T13:11:46.398Z,2.70
2018-07-25T13:14:18.419Z,2.70
2018-07-25T13:16:50.587Z,2.70
2018-07-25T13:19:23.664Z,2.87
2018-07-25T13:21:56.748Z,3.30
2018-07-25T13:24:28.825Z,3.00
2018-07-25T13:27:00.937Z,4.20
2018-07-25T13:29:32.975Z,3.33
2018-07-25T13:32:05.091Z,3.23
2018-07-25T13:34:37.107Z,3.50
2018-07-25T13:37:09.205Z,3.30
2018-07-25T13:39:41.263Z,3.37
2018-07-25T13:42:13.443Z,3.30
2018-07-25T13:44:45.562Z,2.40
2018-07-25T13:47:17.624Z,2.80
2018-07-25T13:49:49.660Z,2.67
2018-07-25T13:52:21.729Z,2.77
2018-07-25T13:54:53.858Z,2.83
2018-07-25T13:57:25.923Z,2.73
2018-07-25T13:59:57.975Z,3.03
2018-07-25T14:02:30.012Z,2.63
2018-07-25T14:05:02.076Z,3.00
2018-07-25T14:07:34.123Z,2.40
2018-07-25T14:10:06.993Z,2.83
2018-07-25T14:12:39.103Z,2.63
2018-07-25T14:15:13.202Z,3.33
2018-07-25T14:17:45.258Z,3.30
2018-07-25T14:20:17.367Z,2.57
2018-07-25T14:22:49.519Z,2.70
2018-07-25T14:25:21.635Z,2.17
2018-07-25T14:27:53.680Z,2.40
2018-07-25T14:30:25.907Z,2.27
2018-07-25T14:32:57.888Z,2.43
2018-07-25T14:35:29.920Z,1.93
2018-07-25T14:38:01.997Z,1.90
2018-07-25T14:40:34.032Z,2.10
2018-07-25T14:43:06.123Z,2.03
2018-07-25T14:45:38.235Z,1.83
2018-07-25T14:48:10.321Z,1.73
2018-07-25T14:50:42.389Z,2.23
2018-07-25T14:53:14.435Z,2.23
2018-07-25T14:55:46.449Z,2.47
2018-07-25T14:58:18.496Z,2.70
2018-07-25T15:00:50.523Z,2.20
2018-07-25T15:03:22.582Z,2.17
2018-07-25T15:05:54.620Z,2.47
2018-07-25T15:08:26.673Z,2.90
2018-07-25T15:10:58.707Z,2.37
2018-07-25T15:13:30.774Z,2.70
2018-07-25T15:16:02.842Z,2.27
2018-07-25T15:18:34.933Z,2.50
2018-07-25T15:21:07.027Z,2.37
2018-07-25T15:23:50.649Z,2.60
2018-07-25T15:26:22.652Z,2.53
2018-07-25T15:28:54.770Z,2.87
2018-07-25T15:31:26.910Z,2.67
2018-07-25T15:33:59.035Z,2.70
2018-07-25T15:36:42.024Z,2.20
2018-07-25T15:39:18.376Z,2.40
2018-07-25T15:41:51.274Z,2.17
2018-07-25T15:44:24.463Z,2.40
2018-07-25T15:46:56.594Z,2.80
2018-07-25T15:49:28.715Z,2.90
2018-07-25T15:52:00.820Z,3.00
2018-07-25T15:54:32.933Z,2.60
2018-07-25T15:57:05.115Z,3.10
2018-07-25T15:59:37.213Z,3.17
2018-07-25T16:02:09.343Z,3.00
2018-07-25T16:04:41.408Z,3.13
2018-07-25T16:07:13.520Z,3.00
2018-07-25T16:09:45.618Z,2.87
2018-07-25T16:12:17.684Z,3.07
2018-07-25T16:14:49.751Z,3.60
2018-07-25T16:17:21.875Z,4.03
2018-07-25T16:19:53.961Z,3.93
2018-07-25T16:22:26.065Z,3.70
2018-07-25T16:24:58.198Z,3.17
2018-07-25T16:27:30.274Z,3.70
2018-07-25T16:30:02.373Z,3.60
2018-07-25T16:32:34.478Z,3.47
2018-07-25T16:35:06.502Z,2.93
2018-07-25T16:37:39.113Z,2.67
2018-07-25T16:40:11.247Z,3.33
2018-07-25T16:42:43.300Z,3.40
2018-07-25T16:45:15.380Z,3.37
2018-07-25T16:47:47.444Z,2.93
2018-07-25T16:50:19.521Z,2.60
2018-07-25T16:52:52.030Z,3.00
2018-07-25T16:55:24.099Z,2.67
2018-07-25T16:57:56.135Z,3.50
2018-07-25T17:00:28.196Z,3.20
2018-07-25T17:03:00.246Z,3.00
2018-07-25T17:05:32.313Z,2.90
2018-07-25T17:08:04.643Z,2.60
2018-07-25T17:10:36.750Z,2.53
2018-07-25T17:13:08.792Z,2.83
2018-07-25T17:15:40.899Z,2.50
2018-07-25T17:18:13.272Z,2.60
2018-07-25T17:20:46.190Z,2.70
2018-07-25T17:23:18.254Z,3.00
2018-07-25T17:25:50.310Z,2.30
2018-07-25T17:28:22.346Z,2.60
2018-07-25T17:30:54.410Z,2.40
2018-07-25T17:33:26.459Z,2.90
2018-07-25T17:35:58.539Z,2.70
2018-07-25T17:38:30.632Z,2.53
2018-07-25T17:41:02.791Z,2.93
2018-07-25T17:43:34.795Z,2.60
2018-07-25T17:46:06.902Z,2.57
2018-07-25T17:48:38.979Z,2.77
2018-07-25T17:51:11.032Z,2.93
2018-07-25T17:53:43.099Z,3.30
2018-07-25T17:56:15.163Z,2.90
2018-07-25T17:58:47.263Z,2.90
2018-07-25T18:01:19.320Z,3.10
2018-07-25T18:03:51.671Z,3.00
2018-07-25T18:06:23.667Z,3.33
2018-07-25T18:08:55.752Z,3.10
2018-07-25T18:11:27.775Z,3.20
2018-07-25T18:14:05.726Z,2.53
2018-07-25T18:16:37.759Z,3.00
2018-07-25T18:19:09.829Z,2.67
2018-07-25T18:21:42.182Z,3.20
2018-07-25T18:24:14.214Z,3.77
2018-07-25T18:26:46.270Z,3.20
2018-07-25T18:29:18.393Z,2.77
2018-07-25T18:31:50.436Z,3.23
2018-07-25T18:34:22.500Z,3.27
2018-07-25T18:36:54.564Z,3.00
2018-07-25T18:39:26.614Z,2.97
2018-07-25T18:41:58.663Z,3.03
2018-07-25T18:44:30.715Z,3.53
2018-07-25T18:47:03.094Z,3.70
2018-07-25T18:49:35.116Z,4.00
2018-07-25T18:52:07.264Z,3.50
2018-07-25T18:54:39.393Z,2.50
2018-07-25T18:57:11.434Z,3.10
2018-07-25T18:59:43.501Z,3.10
2018-07-25T19:02:15.514Z,3.10
2018-07-25T19:04:47.530Z,3.43
2018-07-25T19:07:19.618Z,3.40
2018-07-25T19:09:51.595Z,2.83
2018-07-25T19:12:23.635Z,3.10
2018-07-25T19:15:01.364Z,3.17
2018-07-25T19:17:33.432Z,2.87
2018-07-25T19:20:05.491Z,2.70
2018-07-25T19:22:37.528Z,3.03
2018-07-25T19:25:09.596Z,3.20
2018-07-25T19:27:41.657Z,2.93
2018-07-25T19:30:13.736Z,3.57
2018-07-25T19:32:45.807Z,3.07
2018-07-25T19:35:17.888Z,3.40
2018-07-25T19:37:50.017Z,3.80
2018-07-25T19:40:22.060Z,3.30
2018-07-25T19:42:54.069Z,3.47
2018-07-25T19:45:26.152Z,3.50
2018-07-25T19:47:58.199Z,3.30
2018-07-25T19:50:30.391Z,3.83
2018-07-25T19:53:02.390Z,4.13
2018-07-25T19:55:34.447Z,4.50
2018-07-25T19:58:06.483Z,4.03
2018-07-25T20:00:38.573Z,4.00
2018-07-25T20:03:10.611Z,4.40
2018-07-25T20:05:42.648Z,4.80
2018-07-25T20:08:14.707Z,4.60
2018-07-25T20:10:46.755Z,4.40
2018-07-25T20:13:18.827Z,4.40
2018-07-25T20:15:58.467Z,4.20
2018-07-25T20:18:30.684Z,4.20
2018-07-25T20:21:02.816Z,4.97
2018-07-25T20:23:34.826Z,4.80
2018-07-25T20:26:07.031Z,5.00
2018-07-25T20:28:39.266Z,4.60
2018-07-25T20:31:11.336Z,4.27
2018-07-25T20:33:43.339Z,4.33
2018-07-25T20:36:15.423Z,4.63
2018-07-25T20:38:47.555Z,5.47
2018-07-25T20:41:19.583Z,4.70
2018-07-25T20:43:51.639Z,4.20
2018-07-25T20:46:23.748Z,5.20
2018-07-25T20:48:55.787Z,4.90
2018-07-25T20:51:28.007Z,4.80
2018-07-25T20:54:00.467Z,4.80
2018-07-25T20:56:32.739Z,5.17
2018-07-25T20:59:04.860Z,5.13
2018-07-25T21:01:36.939Z,4.47
2018-07-25T21:04:08.994Z,4.70
2018-07-25T21:06:41.056Z,3.80
2018-07-25T21:09:19.988Z,5.10
2018-07-25T21:11:52.077Z,4.33
2018-07-25T21:14:24.212Z,4.40
2018-07-25T21:16:56.262Z,5.10
2018-07-25T21:19:28.275Z,4.10
2018-07-25T21:22:00.729Z,4.10
2018-07-25T21:24:32.767Z,3.97
2018-07-25T21:27:04.823Z,4.00
2018-07-25T21:29:37.090Z,4.23
2018-07-25T21:32:09.163Z,3.63
2018-07-25T21:34:41.187Z,3.43
2018-07-25T21:37:13.300Z,3.33
2018-07-25T21:39:45.380Z,3.83
2018-07-25T21:42:19.451Z,3.67
2018-07-25T21:44:52.642Z,3.70
2018-07-25T21:47:24.679Z,3.80
2018-07-25T21:49:56.708Z,4.03
2018-07-25T21:52:28.755Z,4.47
2018-07-25T21:55:00.776Z,3.90
2018-07-25T21:57:32.809Z,4.00
2018-07-25T22:00:08.588Z,4.13
2018-07-25T22:02:40.695Z,4.37
2018-07-25T22:05:13.182Z,4.00
2018-07-25T22:07:45.867Z,4.00
2018-07-25T22:10:17.931Z,4.37
2018-07-25T22:12:50.000Z,4.90
2018-07-25T22:15:22.237Z,4.67
2018-07-25T22:17:54.339Z,4.63
2018-07-25T22:20:26.405Z,4.83
2018-07-25T22:22:58.471Z,4.20
2018-07-25T22:25:30.531Z,5.03
2018-07-25T22:28:02.604Z,4.43
2018-07-25T22:30:34.663Z,4.83
2018-07-25T22:33:06.841Z,5.30
2018-07-25T22:35:38.867Z,5.00
2018-07-25T22:38:10.923Z,5.30
2018-07-25T22:40:42.965Z,5.00
2018-07-25T22:43:15.027Z,5.20
2018-07-25T22:45:47.075Z,5.57
2018-07-25T22:48:19.115Z,5.23
2018-07-25T22:50:51.243Z,5.13
2018-07-25T22:53:23.286Z,5.77
2018-07-25T22:55:55.307Z,5.57
2018-07-25T22:58:27.354Z,5.17
2018-07-25T23:00:59.378Z,5.27
2018-07-25T23:03:31.468Z,6.00
2018-07-25T23:06:03.573Z,5.60
2018-07-25T23:08:35.634Z,5.50
2018-07-25T23:11:07.659Z,5.50
2018-07-25T23:13:44.293Z,5.40
2018-07-25T23:16:17.007Z,5.90
2018-07-25T23:18:49.047Z,5.57
2018-07-25T23:21:21.046Z,5.80
2018-07-25T23:23:53.061Z,5.90
2018-07-25T23:26:25.083Z,5.83
2018-07-25T23:28:57.112Z,6.00
2018-07-25T23:31:29.172Z,5.43
2018-07-25T23:34:01.194Z,5.57
2018-07-25T23:36:33.216Z,6.10
2018-07-25T23:39:06.970Z,5.50
2018-07-25T23:41:39.345Z,5.40
2018-07-25T23:44:11.419Z,6.87
2018-07-25T23:46:43.477Z,6.67
2018-07-25T23:49:15.638Z,6.30
2018-07-25T23:51:47.710Z,6.40
2018-07-25T23:54:19.769Z,6.20
2018-07-25T23:56:51.899Z,6.60
2018-07-25T23:59:23.904Z,6.13
